In Rescue
 
Open Full Screen Window  High Contrast Mode
July 23, 2019 1:36 AM EDT
Weather Information
Wind Direction
  ---
Wind Speed
  00 kt (0 mph)
Wind Gust
  00 kt (0 mph)
Altimeter
30.07 in
Visibility
10 SM
Temperature
14° C
57° F
Dewpoint
11° C
52° F
Humidity
82%
Sky Condition
Scattered @ 6,500 ft
VFR

METAR KFFX 230536Z AUTO 00000KT 10SM SCT065 14/11 A3007 RMK AO2 T01380112

FAA Disclaimer: The data displayed is for advisory purposes only and is not to be used for flight planning or operations.